Time;durP1;ratioP1;P1;durP2;ratioP2;P2;SDS_P1;SDS_P2;PMS_P1;PMS_P2;Temp;Humidity;BMP_temperature;BMP_pressure;BME280_temperature;BME280_humidity;BME280_pressure;Samples;Min_cycle;Max_cycle;Signal;HPM_P1;HPM_P2
2022/01/25 00:24:20;;;;;;;23.75;17.08;;;0.40;99.90;;;;;;5016491;28;20465;-77
2022/01/25 00:27:00;;;;;;;25.70;18.17;;;0.40;99.90;;;;;;5016374;28;20034;-77
2022/01/25 00:32:08;;;;;;;25.38;17.55;;;0.50;99.90;;;;;;5015353;28;20032;-76
2022/01/25 00:34:33;;;;;;;26.67;17.35;;;0.50;99.90;;;;;;5014631;28;20022;-78
2022/01/25 00:36:59;;;;;;;22.30;17.23;;;0.40;99.90;;;;;;5015818;28;20038;-78
2022/01/25 00:39:25;;;;;;;26.33;17.83;;;0.40;99.90;;;;;;5015947;28;20030;-78
2022/01/25 00:41:50;;;;;;;23.27;16.80;;;0.40;99.90;;;;;;5018096;28;20069;-78
2022/01/25 00:44:16;;;;;;;26.63;17.83;;;0.50;99.90;;;;;;5035813;28;20033;-77
2022/01/25 00:46:42;;;;;;;29.02;19.13;;;0.50;99.90;;;;;;5020293;28;20018;-78
2022/01/25 00:49:08;;;;;;;28.40;19.17;;;0.40;99.90;;;;;;5014527;28;20026;-78
2022/01/25 00:54:27;;;;;;;22.52;17.17;;;0.40;99.90;;;;;;5022551;28;20034;-78
2022/01/25 00:56:53;;;;;;;26.67;16.95;;;0.30;99.90;;;;;;5023226;28;20038;-78
2022/01/25 00:59:24;;;;;;;26.75;19.70;;;0.40;99.90;;;;;;5023743;28;20524;-77
2022/01/25 01:01:53;;;;;;;27.77;19.10;;;0.30;99.90;;;;;;5034540;28;20016;-78
2022/01/25 01:04:19;;;;;;;26.15;18.73;;;0.30;99.90;;;;;;5036341;28;20006;-77
2022/01/25 01:06:47;;;;;;;29.38;19.83;;;0.30;99.90;;;;;;5034750;28;20090;-77
2022/01/25 01:09:14;;;;;;;28.67;20.02;;;0.30;99.90;;;;;;5026898;28;20026;-77
2022/01/25 01:12:00;;;;;;;29.65;19.75;;;0.40;99.90;;;;;;5036439;28;20033;-77
2022/01/25 01:31:03;;;;;;;29.50;18.73;;;0.40;99.90;;;;;;5022204;28;20105;-76
2022/01/25 01:39:10;;;;;;;32.58;20.58;;;0.20;99.90;;;;;;5018323;28;20108;-76
2022/01/25 01:44:00;;;;;;;33.95;23.10;;;0.20;99.90;;;;;;5020762;28;20018;-76
2022/01/25 01:46:35;;;;;;;31.40;21.45;;;0.20;99.90;;;;;;5017414;28;20036;-77
2022/01/25 01:49:03;;;;;;;31.58;20.85;;;0.10;99.90;;;;;;5017602;28;20014;-77
2022/01/25 01:51:33;;;;;;;30.10;21.80;;;0.10;99.90;;;;;;5016321;28;20054;-77
2022/01/25 01:54:00;;;;;;;;;;;0.10;99.90;;;;;;5018553;28;20684;-77
2022/01/25 01:56:27;;;;;;;32.63;19.65;;;0.10;99.90;;;;;;5019825;28;20245;-78
2022/01/25 01:58:55;;;;;;;33.03;22.27;;;0.10;99.90;;;;;;5021182;28;20033;-77
2022/01/25 02:01:21;;;;;;;30.88;21.40;;;0.10;99.90;;;;;;5019930;28;20440;-77
2022/01/25 02:03:47;;;;;;;36.72;22.48;;;0.10;99.90;;;;;;5016234;28;20080;-77
2022/01/25 02:06:13;;;;;;;38.03;23.77;;;0.00;99.90;;;;;;5019481;28;20022;-77
2022/01/25 02:08:38;;;;;;;30.65;20.58;;;0.00;99.90;;;;;;5033436;28;20030;-77
2022/01/25 02:11:05;;;;;;;33.08;20.92;;;0.00;99.90;;;;;;5017982;28;20036;-78
2022/01/25 02:13:31;;;;;;;35.60;23.38;;;0.00;99.90;;;;;;5016545;28;20025;-77
2022/01/25 02:16:00;;;;;;;29.15;20.85;;;0.00;99.90;;;;;;5017924;28;20053;-76
2022/01/25 02:23:54;;;;;;;31.45;20.98;;;0.10;99.90;;;;;;5020285;28;20090;-77
2022/01/25 02:26:20;;;;;;;30.70;21.83;;;0.00;99.90;;;;;;5023998;28;20029;-77
2022/01/25 02:28:46;;;;;;;29.92;21.05;;;0.00;99.90;;;;;;5022245;28;20072;-77
2022/01/25 02:31:14;;;;;;;30.83;21.02;;;0.00;99.90;;;;;;5023958;28;20030;-77
2022/01/25 02:33:40;;;;;;;29.20;20.25;;;-0.10;99.90;;;;;;5022084;28;20018;-77
2022/01/25 02:36:12;;;;;;;33.08;21.75;;;-0.10;99.90;;;;;;5018256;28;20125;-77
2022/01/25 02:38:38;;;;;;;34.08;20.52;;;0.00;99.90;;;;;;5021832;28;20045;-79
2022/01/25 02:41:04;;;;;;;31.85;21.23;;;0.00;99.90;;;;;;5021718;28;20108;-77
2022/01/25 02:43:30;;;;;;;27.63;20.90;;;0.00;99.90;;;;;;5013692;28;20026;-79
2022/01/25 02:48:50;;;;;;;31.05;21.00;;;0.00;99.90;;;;;;5029605;28;20032;-77
2022/01/25 02:51:16;;;;;;;29.17;19.92;;;0.10;99.90;;;;;;5037473;28;20011;-77
2022/01/25 02:53:42;;;;;;;30.15;20.55;;;0.00;99.90;;;;;;5036781;28;20045;-76
2022/01/25 02:56:07;;;;;;;29.92;21.17;;;0.00;99.90;;;;;;5021565;28;20033;-77
2022/01/25 02:58:33;;;;;;;32.42;21.55;;;0.00;99.90;;;;;;5018056;28;20026;-76
2022/01/25 03:00:58;;;;;;;32.05;21.30;;;0.00;99.90;;;;;;5016823;28;20026;-77
2022/01/25 03:03:24;;;;;;;32.22;21.38;;;0.00;99.90;;;;;;5016103;28;20038;-78
2022/01/25 03:05:49;;;;;;;31.50;20.83;;;-0.20;99.90;;;;;;5016779;28;20061;-78
2022/01/25 03:08:15;;;;;;;35.55;21.95;;;-0.20;99.90;;;;;;5013513;28;20029;-76
2022/01/25 03:10:45;;;;;;;42.42;23.92;;;-0.10;99.90;;;;;;5016391;28;20002;-78
2022/01/25 03:13:20;;;;;;;33.92;22.63;;;-0.20;99.90;;;;;;5035233;28;20030;-78
2022/01/25 03:18:37;;;;;;;31.85;21.05;;;-0.30;99.90;;;;;;5013328;28;20030;-76
2022/01/25 03:21:18;;;;;;;35.70;21.58;;;-0.30;99.90;;;;;;5012326;28;20022;-77
2022/01/25 03:23:45;;;;;;;41.85;22.85;;;-0.30;99.90;;;;;;5012881;28;20037;-77
2022/01/25 03:26:10;;;;;;;33.72;21.95;;;-0.20;99.90;;;;;;5012615;28;20101;-77
2022/01/25 03:28:36;;;;;;;33.22;22.60;;;-0.20;99.90;;;;;;5012277;28;20064;-77
2022/01/25 03:31:02;;;;;;;39.92;23.80;;;-0.20;99.90;;;;;;5017743;28;20022;-76
2022/01/25 03:33:28;;;;;;;35.40;23.70;;;-0.30;99.90;;;;;;5019110;28;20057;-76
2022/01/25 03:35:53;;;;;;;32.42;22.95;;;-0.20;99.90;;;;;;5018024;28;20517;-76
2022/01/25 03:38:19;;;;;;;37.03;24.45;;;-0.20;99.90;;;;;;5014035;28;20461;-76
2022/01/25 03:40:46;;;;;;;32.88;22.00;;;-0.20;99.90;;;;;;5012561;28;20022;-77
2022/01/25 03:43:14;;;;;;;30.80;22.20;;;-0.20;99.90;;;;;;5012495;28;20022;-77
2022/01/25 03:45:43;;;;;;;34.60;22.88;;;-0.20;99.90;;;;;;5012248;28;20048;-78
2022/01/25 03:50:42;;;;;;;36.20;23.45;;;-0.20;99.90;;;;;;5015438;28;20022;-77
2022/01/25 03:53:08;;;;;;;;;;;-0.30;99.90;;;;;;5015805;28;20100;-77
2022/01/25 03:55:33;;;;;;;41.25;22.35;;;-0.30;99.90;;;;;;5015694;28;19917;-77
2022/01/25 03:57:59;;;;;;;35.85;23.40;;;-0.30;99.90;;;;;;5015266;28;20029;-77
2022/01/25 04:00:25;;;;;;;35.75;23.25;;;-0.30;99.90;;;;;;5014072;28;20457;-77
2022/01/25 04:02:56;;;;;;;34.70;22.25;;;-0.30;99.90;;;;;;5015228;28;20090;-77
2022/01/25 04:05:33;;;;;;;33.95;23.15;;;-0.30;99.90;;;;;;5015698;28;20064;-77
2022/01/25 04:07:59;;;;;;;35.05;23.52;;;-0.30;99.90;;;;;;5015312;28;20014;-77
2022/01/25 04:10:24;;;;;;;33.15;21.17;;;-0.40;99.90;;;;;;5015240;28;20022;-77
2022/01/25 04:12:50;;;;;;;34.40;22.50;;;-0.30;99.90;;;;;;5013814;28;20034;-77
2022/01/25 04:15:16;;;;;;;35.78;22.33;;;-0.40;99.90;;;;;;5013829;28;20037;-77
2022/01/25 04:17:45;;;;;;;38.53;22.27;;;-0.50;99.90;;;;;;5014864;28;20026;-77
2022/01/25 04:20:28;;;;;;;33.28;21.85;;;-0.50;99.90;;;;;;5013479;28;20123;-77
2022/01/25 04:25:38;;;;;;;31.17;21.38;;;-0.50;99.90;;;;;;5015278;28;20033;-77
2022/01/25 04:28:04;;;;;;;34.60;21.90;;;-0.40;99.90;;;;;;5013531;28;20425;-78
2022/01/25 04:30:29;;;;;;;32.28;22.20;;;-0.40;99.90;;;;;;5013573;28;20477;-77
2022/01/25 04:49:11;;;;;;;33.65;21.48;;;-0.60;99.90;;;;;;5016584;28;20080;-78
2022/01/25 04:51:48;;;;;;;42.08;22.13;;;-0.50;99.90;;;;;;5016187;28;20473;-78
2022/01/25 04:56:56;;;;;;;33.65;20.25;;;-0.40;99.90;;;;;;5019146;28;20029;-77
2022/01/25 05:02:00;;;;;;;40.80;21.45;;;-0.40;99.90;;;;;;5023639;28;20026;-77
2022/01/25 05:04:31;;;;;;;31.95;21.52;;;-0.30;99.90;;;;;;5024089;28;20022;-77
2022/01/25 05:07:07;;;;;;;26.27;20.52;;;-0.40;99.90;;;;;;5038740;28;20022;-77
2022/01/25 05:09:34;;;;;;;33.58;21.67;;;-0.40;99.90;;;;;;5023996;28;20097;-77
2022/01/25 05:11:59;;;;;;;32.20;21.15;;;-0.40;99.90;;;;;;5022636;28;20034;-77
2022/01/25 05:14:32;;;;;;;29.70;20.60;;;-0.40;99.90;;;;;;5024029;28;20137;-78
2022/01/25 05:17:00;;;;;;;31.90;21.45;;;-0.40;99.90;;;;;;5017879;28;20026;-77
2022/01/25 05:22:27;;;;;;;30.50;20.50;;;-0.40;99.90;;;;;;5014800;28;20172;-76
2022/01/25 05:24:54;;;;;;;30.60;21.50;;;-0.40;99.90;;;;;;5020777;28;20109;-77
2022/01/25 05:27:22;;;;;;;32.03;21.00;;;-0.50;99.90;;;;;;5037117;28;20496;-76
2022/01/25 05:29:48;;;;;;;34.67;21.70;;;-0.60;99.90;;;;;;5023042;28;20026;-77
2022/01/25 05:32:15;;;;;;;30.48;20.63;;;-0.50;99.90;;;;;;5020300;28;20085;-76
2022/01/25 05:34:40;;;;;;;37.47;21.90;;;-0.50;99.90;;;;;;5021737;28;20040;-77
2022/01/25 05:37:07;;;;;;;29.77;20.10;;;-0.50;99.90;;;;;;5016285;28;20441;-77
2022/01/25 05:39:35;;;;;;;32.97;21.13;;;-0.50;99.90;;;;;;5017851;28;20018;-76
2022/01/25 05:47:30;;;;;;;32.47;21.67;;;-0.50;99.90;;;;;;5037518;28;20073;-77
2022/01/25 05:49:58;;;;;;;33.22;21.92;;;-0.50;99.90;;;;;;5035928;28;20006;-77
2022/01/25 05:52:24;;;;;;;32.10;22.05;;;-0.50;99.90;;;;;;5031528;28;20022;-77
2022/01/25 05:54:50;;;;;;;36.00;21.42;;;-0.50;99.90;;;;;;5018042;28;20490;-77
2022/01/25 05:57:16;;;;;;;33.33;22.27;;;-0.50;99.90;;;;;;5020156;28;20029;-78
2022/01/25 05:59:41;;;;;;;39.13;23.50;;;-0.60;99.90;;;;;;5023827;28;20056;-77
2022/01/25 06:02:07;;;;;;;30.08;21.08;;;-0.50;99.90;;;;;;5038057;28;20049;-77
2022/01/25 06:04:33;;;;;;;33.50;22.75;;;-0.50;99.90;;;;;;5037324;28;20021;-78
2022/01/25 06:06:59;;;;;;;36.22;22.27;;;-0.60;99.90;;;;;;5037978;28;20025;-77
2022/01/25 06:09:25;;;;;;;33.85;22.20;;;-0.60;99.90;;;;;;5037700;28;20040;-76
2022/01/25 06:11:52;;;;;;;36.33;23.25;;;-0.60;99.90;;;;;;5021031;28;20436;-78
2022/01/25 06:14:18;;;;;;;32.83;21.38;;;-0.60;99.90;;;;;;5014028;28;20026;-77
2022/01/25 06:16:44;;;;;;;32.28;22.90;;;-0.70;99.90;;;;;;5013563;28;20487;-78
2022/01/25 06:19:09;;;;;;;33.40;22.98;;;-0.70;99.90;;;;;;5015619;28;20029;-78
2022/01/25 06:21:35;;;;;;;33.33;21.17;;;-0.70;99.90;;;;;;5015780;28;20042;-77
2022/01/25 06:24:01;;;;;;;39.15;23.23;;;-0.70;99.90;;;;;;5017060;28;20022;-78
2022/01/25 06:26:26;;;;;;;36.20;22.73;;;-0.70;99.90;;;;;;5018848;28;20127;-79
2022/01/25 06:28:52;;;;;;;39.00;22.65;;;-0.70;99.90;;;;;;5019953;28;20026;-78
2022/01/25 06:31:18;;;;;;;39.08;24.35;;;-0.60;99.90;;;;;;5018615;28;20033;-76
2022/01/25 06:33:45;;;;;;;39.33;23.38;;;-0.60;99.90;;;;;;5019040;28;20022;-78
2022/01/25 06:36:10;;;;;;;37.28;23.40;;;-0.60;99.90;;;;;;5016730;28;20018;-77
2022/01/25 06:38:36;;;;;;;37.42;23.02;;;-0.70;99.90;;;;;;5018898;28;20108;-77
2022/01/25 06:41:02;;;;;;;37.10;22.88;;;-0.70;99.90;;;;;;4997535;28;20025;-77
2022/01/25 06:43:28;;;;;;;35.38;23.30;;;-0.70;99.90;;;;;;5013794;28;20032;-76
2022/01/25 06:46:01;;;;;;;37.35;21.33;;;-0.70;99.90;;;;;;5013830;28;20030;-77
2022/01/25 06:48:27;;;;;;;34.47;21.88;;;-0.70;99.90;;;;;;5012192;28;20566;-77
2022/01/25 06:50:52;;;;;;;35.72;22.60;;;-0.70;99.90;;;;;;5012975;28;20322;-78
2022/01/25 06:53:18;;;;;;;38.00;22.85;;;-0.70;99.90;;;;;;5014018;28;20030;-76
2022/01/25 06:55:44;;;;;;;36.25;22.38;;;-0.70;99.90;;;;;;5016752;28;20453;-78
2022/01/25 06:58:09;;;;;;;37.30;24.42;;;-0.80;99.90;;;;;;5017963;28;20026;-76
2022/01/25 07:00:36;;;;;;;35.35;23.20;;;-0.70;99.90;;;;;;5020659;28;20481;-78
2022/01/25 07:03:01;;;;;;;38.58;24.20;;;-0.70;99.90;;;;;;5021116;28;20026;-78
2022/01/25 07:05:28;;;;;;;36.47;23.02;;;-0.70;99.90;;;;;;5021327;28;20026;-77
2022/01/25 07:07:53;;;;;;;32.90;22.33;;;-0.60;99.90;;;;;;5019433;28;20026;-77
2022/01/25 07:10:20;;;;;;;40.88;24.55;;;-0.70;99.90;;;;;;5017704;28;20033;-77
2022/01/25 07:12:45;;;;;;;41.47;24.02;;;-0.70;99.90;;;;;;5018835;28;20556;-77
2022/01/25 07:15:13;;;;;;;38.35;22.67;;;-0.70;99.90;;;;;;5030118;28;20033;-77
2022/01/25 07:17:39;;;;;;;41.65;23.50;;;-0.60;99.90;;;;;;5023896;28;20052;-77
2022/01/25 07:20:06;;;;;;;35.80;21.80;;;-0.60;99.90;;;;;;5021481;28;20026;-77
2022/01/25 07:22:33;;;;;;;35.50;21.45;;;-0.60;99.90;;;;;;5027752;28;20041;-78
2022/01/25 07:24:59;;;;;;;37.28;21.92;;;-0.50;99.90;;;;;;5030185;28;20021;-77
2022/01/25 07:27:25;;;;;;;35.92;21.90;;;-0.50;99.90;;;;;;5032598;28;20052;-77
2022/01/25 07:29:50;;;;;;;34.53;21.08;;;-0.40;99.90;;;;;;5031346;28;20030;-77
2022/01/25 07:32:16;;;;;;;32.50;20.25;;;-0.30;99.90;;;;;;5025955;28;20037;-77
2022/01/25 07:34:42;;;;;;;33.30;20.90;;;-0.30;99.90;;;;;;5026987;28;20034;-76
2022/01/25 07:37:07;;;;;;;39.35;21.60;;;-0.20;99.90;;;;;;5027483;28;20150;-77
2022/01/25 07:39:33;;;;;;;34.42;23.35;;;-0.30;99.90;;;;;;5027725;28;20025;-78
2022/01/25 07:41:59;;;;;;;35.22;22.00;;;-0.20;99.90;;;;;;5027900;28;20034;-78
2022/01/25 07:44:30;;;;;;;34.88;21.95;;;-0.20;99.90;;;;;;5028013;28;20069;-78
2022/01/25 07:46:57;;;;;;;41.80;22.73;;;-0.20;99.90;;;;;;5028483;28;20545;-77
2022/01/25 07:49:24;;;;;;;33.33;21.33;;;-0.20;99.90;;;;;;5025919;28;20030;-77
2022/01/25 07:51:51;;;;;;;37.33;21.67;;;-0.10;99.90;;;;;;5027026;28;20093;-76
2022/01/25 07:54:17;;;;;;;31.17;19.63;;;-0.10;99.90;;;;;;5026264;28;20026;-77
2022/01/25 07:56:42;;;;;;;38.45;22.55;;;0.00;99.90;;;;;;5027105;28;20037;-76
2022/01/25 07:59:08;;;;;;;36.30;22.90;;;0.00;99.90;;;;;;5026007;28;20030;-77
2022/01/25 08:01:34;;;;;;;33.85;21.17;;;0.00;99.90;;;;;;5027591;28;20040;-77
2022/01/25 08:03:59;;;;;;;35.38;22.00;;;0.10;99.90;;;;;;5023763;28;20014;-77
2022/01/25 08:06:25;;;;;;;37.40;23.50;;;0.20;99.90;;;;;;5026359;28;20121;-77
2022/01/25 08:08:52;;;;;;;35.63;21.58;;;0.20;99.90;;;;;;5027134;28;20029;-77
2022/01/25 08:11:18;;;;;;;32.08;20.50;;;0.30;99.90;;;;;;5031803;28;20018;-76
2022/01/25 08:13:48;;;;;;;32.90;21.23;;;0.40;99.90;;;;;;5030891;28;20050;-76
2022/01/25 08:16:15;;;;;;;32.33;20.90;;;0.40;99.90;;;;;;5030790;28;20445;-76
2022/01/25 08:18:40;;;;;;;35.22;21.20;;;0.50;99.90;;;;;;5028411;28;20025;-76
2022/01/25 08:21:06;;;;;;;30.88;20.23;;;0.50;99.90;;;;;;5030474;28;20065;-76
2022/01/25 08:23:32;;;;;;;28.55;19.45;;;0.40;99.90;;;;;;5026891;28;20030;-77
2022/01/25 08:25:58;;;;;;;30.42;19.70;;;0.40;99.90;;;;;;5030642;28;20045;-77
2022/01/25 08:28:23;;;;;;;32.25;20.52;;;0.50;99.90;;;;;;5030901;28;20041;-77
2022/01/25 08:30:49;;;;;;;32.70;20.70;;;0.40;99.90;;;;;;5030731;28;20065;-77
2022/01/25 08:33:14;;;;;;;29.92;20.35;;;0.40;99.90;;;;;;5029371;28;20026;-77
2022/01/25 08:35:40;;;;;;;32.67;20.02;;;0.60;99.90;;;;;;5032843;28;20044;-77
2022/01/25 08:38:06;;;;;;;28.70;21.35;;;0.70;99.90;;;;;;5036431;28;20034;-77
2022/01/25 08:40:33;;;;;;;28.98;19.55;;;0.80;99.90;;;;;;5039181;28;20018;-77
2022/01/25 08:42:59;;;;;;;47.70;22.83;;;0.90;99.90;;;;;;5036217;28;20044;-77
2022/01/25 08:45:25;;;;;;;30.73;20.25;;;1.10;99.90;;;;;;5031879;28;20022;-77
2022/01/25 08:47:51;;;;;;;33.20;21.80;;;1.10;99.90;;;;;;5030979;28;20044;-77
2022/01/25 08:50:17;;;;;;;33.42;20.80;;;1.10;99.90;;;;;;5031181;28;20025;-77
2022/01/25 08:52:42;;;;;;;29.65;20.92;;;1.10;99.90;;;;;;5046771;28;20048;-76
2022/01/25 08:55:08;;;;;;;30.17;19.45;;;1.40;99.90;;;;;;5028467;28;20033;-78
2022/01/25 08:57:34;;;;;;;32.38;19.50;;;1.50;99.90;;;;;;5030998;28;20025;-77
2022/01/25 09:00:02;;;;;;;30.33;20.10;;;1.60;99.90;;;;;;5029066;28;20049;-76
2022/01/25 09:02:28;;;;;;;28.27;19.40;;;1.70;99.90;;;;;;5025810;28;20033;-76
2022/01/25 09:04:53;;;;;;;30.08;20.45;;;1.70;99.90;;;;;;5027366;28;20026;-76
2022/01/25 09:07:19;;;;;;;29.25;19.45;;;1.70;99.90;;;;;;5027376;28;20033;-78
2022/01/25 09:09:45;;;;;;;32.50;21.30;;;1.80;99.90;;;;;;5044811;28;20030;-77
2022/01/25 09:12:10;;;;;;;28.95;21.10;;;1.70;99.90;;;;;;5027641;28;20033;-76
2022/01/25 09:14:36;;;;;;;33.65;20.63;;;1.80;99.90;;;;;;5026290;28;20501;-76
2022/01/25 09:17:02;;;;;;;33.72;20.52;;;1.90;99.90;;;;;;5019703;28;20041;-77
2022/01/25 09:19:28;;;;;;;28.30;19.90;;;2.10;99.90;;;;;;5018420;28;20524;-77
2022/01/25 09:21:53;;;;;;;34.72;20.80;;;2.20;99.90;;;;;;5015277;28;20101;-77
2022/01/25 09:24:19;;;;;;;31.70;20.55;;;2.30;99.90;;;;;;5015207;28;20028;-77
2022/01/25 09:26:44;;;;;;;27.42;19.02;;;2.40;99.90;;;;;;5014918;28;20442;-78
2022/01/25 09:29:10;;;;;;;34.03;21.35;;;2.40;99.90;;;;;;5015562;28;20018;-77
2022/01/25 09:31:36;;;;;;;31.52;19.83;;;2.50;99.90;;;;;;5015051;28;20061;-78
2022/01/25 09:34:02;;;;;;;28.75;19.45;;;2.50;99.90;;;;;;5015981;28;20029;-79
2022/01/25 09:36:27;;;;;;;29.67;20.45;;;2.40;99.90;;;;;;5013757;28;20076;-79
2022/01/25 09:38:55;;;;;;;36.50;23.05;;;2.30;99.90;;;;;;5030861;28;20109;-77
2022/01/25 09:41:21;;;;;;;31.50;21.05;;;2.40;99.90;;;;;;5015821;28;20041;-77
2022/01/25 09:43:47;;;;;;;29.95;20.33;;;2.60;99.90;;;;;;5016391;28;20513;-77
2022/01/25 09:46:13;;;;;;;32.13;20.80;;;2.50;99.90;;;;;;5015033;28;20033;-78
2022/01/25 09:48:38;;;;;;;28.58;20.92;;;2.60;99.90;;;;;;5014694;28;20032;-77
2022/01/25 09:51:10;;;;;;;33.58;22.75;;;2.70;99.90;;;;;;5030555;28;20502;-77
2022/01/25 09:53:38;;;;;;;30.95;22.25;;;2.90;99.90;;;;;;5030145;28;20117;-77
2022/01/25 09:56:04;;;;;;;34.85;21.45;;;3.00;99.90;;;;;;5014974;28;20108;-79
2022/01/25 09:58:29;;;;;;;37.08;22.88;;;3.00;99.90;;;;;;5015177;28;20026;-77
2022/01/25 10:01:00;;;;;;;31.60;21.15;;;3.10;99.90;;;;;;5016069;28;20030;-79
2022/01/25 10:03:31;;;;;;;41.85;23.58;;;3.20;99.90;;;;;;5015491;28;20058;-78
2022/01/25 10:06:00;;;;;;;;;;;3.20;99.90;;;;;;5020811;28;20100;-77
2022/01/25 10:08:30;;;;;;;34.47;21.42;;;3.20;99.90;;;;;;5015060;28;20285;-77
2022/01/25 10:11:10;;;;;;;38.45;21.90;;;3.40;99.90;;;;;;5015405;28;20029;-78
2022/01/25 10:13:42;;;;;;;31.45;21.75;;;3.40;99.90;;;;;;5015651;28;20565;-78
2022/01/25 10:16:07;;;;;;;33.35;22.02;;;3.40;99.90;;;;;;5016383;28;20111;-77
2022/01/25 10:18:53;;;;;;;36.40;21.88;;;3.50;99.90;;;;;;5016748;28;20025;-79
2022/01/25 10:21:22;;;;;;;32.75;21.50;;;3.50;99.90;;;;;;5015677;28;20105;-76
2022/01/25 10:24:12;;;;;;;33.22;22.17;;;3.60;99.90;;;;;;5016711;28;20474;-76
2022/01/25 10:27:03;;;;;;;35.10;22.15;;;3.80;99.90;;;;;;5024448;28;20036;-77
2022/01/25 10:29:36;;;;;;;29.40;21.05;;;3.70;99.90;;;;;;5022411;28;20095;-77
2022/01/25 10:32:14;;;;;;;33.47;21.77;;;3.80;99.90;;;;;;5021511;28;20036;-78
2022/01/25 10:34:46;;;;;;;34.85;22.70;;;3.80;99.90;;;;;;5020766;28;20089;-77
2022/01/25 10:37:15;;;;;;;29.88;22.27;;;3.80;99.90;;;;;;5020724;28;20060;-78
2022/01/25 10:39:44;;;;;;;32.22;22.27;;;3.90;99.90;;;;;;5021842;28;20030;-76
2022/01/25 10:42:18;;;;;;;32.83;22.02;;;4.00;99.90;;;;;;5022056;28;20025;-78
2022/01/25 10:45:06;;;;;;;31.75;21.75;;;4.00;99.90;;;;;;5016930;28;20026;-77
2022/01/25 10:47:51;;;;;;;38.03;23.45;;;4.10;99.90;;;;;;5013732;28;20030;-77
2022/01/25 10:50:23;;;;;;;30.30;21.63;;;4.20;99.90;;;;;;5016550;28;20026;-77
2022/01/25 10:53:17;;;;;;;30.25;24.00;;;4.30;99.90;;;;;;5032751;28;20041;-76
2022/01/25 10:55:48;;;;;;;36.25;21.83;;;4.30;99.90;;;;;;5008681;28;20064;-78
2022/01/25 10:58:15;;;;;;;30.45;20.95;;;4.40;99.90;;;;;;5021211;28;20030;-77
2022/01/25 11:00:44;;;;;;;35.58;23.90;;;4.50;99.90;;;;;;5026306;28;20052;-77
2022/01/25 11:03:10;;;;;;;32.13;22.45;;;4.60;99.90;;;;;;5020324;28;20160;-76
2022/01/25 11:05:39;;;;;;;32.45;24.50;;;4.60;99.90;;;;;;5023213;28;20045;-78
2022/01/25 11:08:18;;;;;;;36.72;23.10;;;4.70;99.90;;;;;;5021760;28;20033;-77
2022/01/25 11:10:55;;;;;;;30.73;21.83;;;4.70;99.90;;;;;;5022476;28;20014;-77
2022/01/25 11:16:00;;;;;;;33.22;22.00;;;4.70;99.90;;;;;;5021360;28;20033;-77
2022/01/25 11:18:26;;;;;;;37.72;25.55;;;4.80;99.90;;;;;;5022610;28;20499;-78
2022/01/25 11:20:54;;;;;;;33.10;24.73;;;4.90;99.90;;;;;;5023184;28;20089;-77
2022/01/25 11:23:20;;;;;;;32.25;22.67;;;5.00;99.90;;;;;;5021105;28;20030;-77
2022/01/25 11:25:48;;;;;;;28.80;23.13;;;4.90;99.90;;;;;;5021765;28;20076;-77
2022/01/25 11:28:14;;;;;;;35.67;23.88;;;4.90;99.90;;;;;;5032381;28;20044;-76
2022/01/25 11:30:40;;;;;;;32.92;23.60;;;4.90;99.90;;;;;;5039514;28;20080;-76
2022/01/25 11:33:09;;;;;;;31.35;24.45;;;5.00;99.90;;;;;;5039374;28;20022;-77
2022/01/25 11:35:36;;;;;;;33.85;22.73;;;5.00;99.90;;;;;;5039716;28;20053;-76
2022/01/25 11:38:03;;;;;;;31.20;23.17;;;5.00;99.90;;;;;;5037643;28;20025;-76
2022/01/25 11:40:38;;;;;;;38.85;23.50;;;5.00;99.90;;;;;;5029512;28;20030;-77
2022/01/25 11:43:22;;;;;;;36.92;23.52;;;5.10;99.90;;;;;;5022658;28;20030;-76
2022/01/25 11:45:49;;;;;;;32.45;25.92;;;5.20;99.90;;;;;;5021321;28;20029;-77
2022/01/25 11:48:34;;;;;;;34.10;23.05;;;5.20;99.90;;;;;;5020601;28;20033;-78
2022/01/25 11:51:02;;;;;;;35.53;24.67;;;5.10;99.90;;;;;;5028448;28;20040;-77
2022/01/25 11:53:29;;;;;;;31.17;23.33;;;5.20;99.90;;;;;;5028362;28;20026;-77
2022/01/25 11:55:55;;;;;;;33.58;24.85;;;5.20;99.90;;;;;;5032522;28;20022;-77
2022/01/25 11:58:31;;;;;;;32.30;24.75;;;5.00;99.90;;;;;;5033042;28;20037;-76
2022/01/25 12:01:03;;;;;;;39.13;25.38;;;5.00;99.90;;;;;;5032873;28;20018;-77
2022/01/25 12:03:31;;;;;;;33.90;23.40;;;5.10;99.90;;;;;;5031221;28;20034;-78
2022/01/25 12:06:05;;;;;;;36.70;26.02;;;4.80;99.90;;;;;;5029836;28;20045;-78
2022/01/25 12:11:41;;;;;;;32.15;22.65;;;4.70;99.90;;;;;;5025790;28;20049;-78
2022/01/25 12:14:10;;;;;;;40.00;26.35;;;4.90;99.90;;;;;;5026096;28;20359;-79
2022/01/25 12:16:45;;;;;;;37.03;25.67;;;4.80;99.90;;;;;;5027317;28;20034;-77
2022/01/25 12:19:16;;;;;;;34.58;26.05;;;4.50;99.90;;;;;;5037609;28;20026;-78
2022/01/25 12:21:49;;;;;;;39.58;27.00;;;4.70;99.90;;;;;;5039425;28;20095;-77
2022/01/25 12:24:30;;;;;;;40.35;28.30;;;5.00;99.90;;;;;;5039686;28;20021;-77
2022/01/25 12:27:06;;;;;;;35.50;25.98;;;4.80;99.90;;;;;;5040042;28;20103;-76
2022/01/25 12:29:35;;;;;;;37.70;24.60;;;4.90;99.90;;;;;;5056276;28;20448;-77
2022/01/25 12:32:47;;;;;;;40.75;27.23;;;5.00;99.90;;;;;;5039816;28;20010;-78
2022/01/25 12:35:31;;;;;;;39.08;26.40;;;5.00;99.90;;;;;;5004723;28;20042;-76
2022/01/25 12:38:00;;;;;;;42.03;28.50;;;5.10;99.90;;;;;;5021275;28;20029;-78
2022/01/25 12:40:25;;;;;;;39.42;27.35;;;5.00;99.90;;;;;;5020444;28;20029;-77
2022/01/25 12:43:06;;;;;;;38.25;27.08;;;4.80;99.90;;;;;;5018523;28;20034;-78
2022/01/25 12:45:43;;;;;;;39.65;27.08;;;4.80;99.90;;;;;;5019393;28;20080;-78
2022/01/25 12:48:15;;;;;;;36.38;26.05;;;4.80;99.90;;;;;;5018376;28;20029;-77
2022/01/25 12:50:48;;;;;;;37.80;27.75;;;4.60;99.90;;;;;;5017876;28;20084;-77
2022/01/25 12:53:18;;;;;;;37.10;27.27;;;4.90;99.90;;;;;;5016647;28;20044;-77
2022/01/25 12:55:46;;;;;;;37.53;26.23;;;4.70;99.90;;;;;;5017277;28;20054;-77
2022/01/25 12:58:12;;;;;;;38.70;27.13;;;4.70;99.90;;;;;;5016229;28;20470;-77
2022/01/25 13:00:44;;;;;;;37.83;25.83;;;4.80;99.90;;;;;;5016958;28;20084;-77
2022/01/25 13:03:29;;;;;;;40.20;26.42;;;4.90;99.90;;;;;;5016489;28;20460;-77
2022/01/25 13:05:54;;;;;;;38.53;26.98;;;5.00;99.90;;;;;;5028977;28;20028;-78
2022/01/25 13:08:34;;;;;;;39.90;26.98;;;5.00;99.90;;;;;;5021160;28;20042;-78
2022/01/25 13:11:20;;;;;;;40.42;27.65;;;5.00;99.90;;;;;;5016684;28;20050;-77
2022/01/25 13:14:02;;;;;;;39.22;27.77;;;4.90;99.90;;;;;;5017568;28;20034;-78
2022/01/25 13:16:45;;;;;;;37.22;25.95;;;4.60;99.90;;;;;;5015725;28;20021;-76
2022/01/25 13:19:12;;;;;;;36.08;24.40;;;4.70;99.90;;;;;;5015393;28;20048;-76
2022/01/25 13:21:49;;;;;;;34.22;24.55;;;5.00;99.90;;;;;;5016731;28;20088;-76
2022/01/25 13:24:18;;;;;;;37.55;25.33;;;5.00;99.90;;;;;;5015626;28;20022;-77
2022/01/25 13:27:13;;;;;;;36.15;27.75;;;5.20;99.90;;;;;;5015008;28;20018;-77
2022/01/25 13:32:37;;;;;;;34.75;26.08;;;5.10;99.90;;;;;;5015055;28;20160;-77
2022/01/25 13:35:17;;;;;;;36.92;26.08;;;5.20;99.90;;;;;;5016411;28;20154;-76
2022/01/25 13:37:44;;;;;;;36.85;25.38;;;5.10;99.90;;;;;;5015563;28;20045;-77
2022/01/25 13:40:14;;;;;;;41.63;27.25;;;4.80;99.90;;;;;;5021669;28;20048;-77
2022/01/25 13:45:44;;;;;;;39.20;27.50;;;4.50;99.90;;;;;;4983793;28;20030;-77
2022/01/25 13:48:13;;;;;;;44.45;28.17;;;4.40;99.90;;;;;;5015601;28;20049;-78
2022/01/25 13:50:39;;;;;;;41.85;29.20;;;4.30;99.90;;;;;;5017146;28;20026;-78
2022/01/25 13:53:07;;;;;;;46.72;30.08;;;4.20;99.90;;;;;;5016309;28;20108;-78
2022/01/25 13:55:34;;;;;;;43.15;30.08;;;4.20;99.90;;;;;;5015109;28;20090;-78
2022/01/25 13:57:59;;;;;;;40.03;28.13;;;4.10;99.90;;;;;;5029418;28;20112;-79
2022/01/25 14:00:26;;;;;;;43.63;30.55;;;4.00;99.90;;;;;;5012306;28;20553;-78
2022/01/25 14:02:55;;;;;;;45.08;30.75;;;4.10;99.90;;;;;;5014636;28;20389;-77
2022/01/25 14:05:21;;;;;;;43.90;29.30;;;4.00;99.90;;;;;;5017404;28;20029;-77
2022/01/25 14:07:52;;;;;;;48.33;30.10;;;4.00;99.90;;;;;;5016886;28;20045;-78
2022/01/25 14:10:24;;;;;;;44.30;29.65;;;3.90;99.90;;;;;;5016467;28;20113;-78
2022/01/25 14:24:04;;;;;;;39.53;26.95;;;3.20;99.90;;;;;;5036233;28;20036;-77
2022/01/25 14:26:30;;;;;;;47.17;28.42;;;3.20;99.90;;;;;;5037069;28;20016;-78
2022/01/25 14:29:12;;;;;;;53.75;30.30;;;3.20;99.90;;;;;;5036591;28;20473;-78
2022/01/25 14:31:43;;;;;;;50.10;30.40;;;3.00;99.90;;;;;;5024983;28;20048;-78
2022/01/25 14:34:14;;;;;;;48.72;28.95;;;2.80;99.90;;;;;;5021031;28;20026;-77
2022/01/25 14:36:42;;;;;;;55.67;33.55;;;2.60;99.90;;;;;;5026139;28;20060;-77
2022/01/25 14:39:09;;;;;;;53.47;31.95;;;2.50;99.90;;;;;;5021603;28;20038;-77
2022/01/25 14:41:37;;;;;;;58.83;32.53;;;2.50;99.90;;;;;;5019775;28;20026;-77
2022/01/25 14:44:12;;;;;;;54.13;30.30;;;2.40;99.90;;;;;;5018736;28;20022;-77